地図

経路データ

SID SEASON NUMBER BASIN SUBBASIN NAME ISO_TIME NATURE LAT LON WMO_WIND WMO_PRES WMO_AGENCY TRACK_TYPE DIST2LAND LANDFALL IFLAG USA_AGENCY USA_ATCF_ID USA_LAT USA_LON USA_RECORD USA_STATUS USA_WIND USA_PRES USA_SSHS USA_R34_NE USA_R34_SE USA_R34_SW USA_R34_NW USA_R50_NE USA_R50_SE USA_R50_SW USA_R50_NW USA_R64_NE USA_R64_SE USA_R64_SW USA_R64_NW USA_POCI USA_ROCI USA_RMW USA_EYE TOKYO_LAT TOKYO_LON TOKYO_GRADE TOKYO_WIND TOKYO_PRES TOKYO_R50_DIR TOKYO_R50_LONG TOKYO_R50_SHORT TOKYO_R30_DIR TOKYO_R30_LONG TOKYO_R30_SHORT TOKYO_LAND CMA_LAT CMA_LON CMA_CAT CMA_WIND CMA_PRES HKO_LAT HKO_LON HKO_CAT HKO_WIND HKO_PRES NEWDELHI_LAT NEWDELHI_LON NEWDELHI_GRADE NEWDELHI_WIND NEWDELHI_PRES NEWDELHI_CI NEWDELHI_DP NEWDELHI_POCI REUNION_LAT REUNION_LON REUNION_TYPE REUNION_WIND REUNION_PRES REUNION_TNUM REUNION_CI REUNION_RMW REUNION_R34_NE REUNION_R34_SE REUNION_R34_SW REUNION_R34_NW REUNION_R50_NE REUNION_R50_SE REUNION_R50_SW REUNION_R50_NW REUNION_R64_NE REUNION_R64_SE REUNION_R64_SW REUNION_R64_NW BOM_LAT BOM_LON BOM_TYPE BOM_WIND BOM_PRES BOM_TNUM BOM_CI BOM_RMW BOM_R34_NE BOM_R34_SE BOM_R34_SW BOM_R34_NW BOM_R50_NE BOM_R50_SE BOM_R50_SW BOM_R50_NW BOM_R64_NE BOM_R64_SE BOM_R64_SW BOM_R64_NW BOM_ROCI BOM_POCI BOM_EYE BOM_POS_METHOD BOM_PRES_METHOD NADI_LAT NADI_LON NADI_CAT NADI_WIND NADI_PRES WELLINGTON_LAT WELLINGTON_LON WELLINGTON_WIND WELLINGTON_PRES DS824_LAT DS824_LON DS824_STAGE DS824_WIND DS824_PRES TD9636_LAT TD9636_LON TD9636_STAGE TD9636_WIND TD9636_PRES TD9635_LAT TD9635_LON TD9635_WIND TD9635_PRES TD9635_ROCI NEUMANN_LAT NEUMANN_LON NEUMANN_CLASS NEUMANN_WIND NEUMANN_PRES MLC_LAT MLC_LON MLC_CLASS MLC_WIND MLC_PRES USA_GUST BOM_GUST BOM_GUST_PER REUNION_GUST REUNION_GUST_PER USA_SEAHGT USA_SEARAD_NE USA_SEARAD_SE USA_SEARAD_SW USA_SEARAD_NW STORM_SPEED STORM_DIR
1905265N16087 1905 42 NI BB NOT_NAMED 1905-09-22 00:00:00 TS 15.9000 86.6000 main 377 370 _________O____ -1 15.9000 86.6000 TC 34 1 272
1905265N16087 1905 42 NI BB NOT_NAMED 1905-09-22 03:00:00 TS 15.9017 86.5417 main 370 363 _________PO___ -1 15.9025 86.5125 TC 36 15.9000 86.6000 2 2 270
1905265N16087 1905 42 NI BB NOT_NAMED 1905-09-22 06:00:00 TS 15.9001 86.4238 main 363 356 _________OP___ -1 15.9000 86.4000 TC 39 15.9001 86.4595 2 2 269
1905265N16087 1905 42 NI BB NOT_NAMED 1905-09-22 09:00:00 TS 15.8958 86.2822 main 356 349 _________PP___ -1 15.8925 86.2500 TC 42 15.9002 86.3252 2 3 270
1905265N16087 1905 42 NI BB NOT_NAMED 1905-09-22 12:00:00 TS 15.9001 86.1516 main 349 342 _________OP___ -1 15.9000 86.1000 TC 45 15.9001 86.2033 2 2 276
1905265N16087 1905 42 NI BB NOT_NAMED 1905-09-22 15:00:00 TS 15.9212 86.0462 main 336 336 _________PO___ -1 15.9425 85.9925 TC 45 15.9000 86.1000 3 2 285
1905265N16087 1905 42 NI BB NOT_NAMED 1905-09-22 18:00:00 TS 15.9515 85.9585 main 327 320 _________OP___ -1 16.0000 85.9000 TC 45 15.9030 86.0169 3 2 288
1905265N16087 1905 42 NI BB NOT_NAMED 1905-09-22 21:00:00 TS 15.9724 85.8797 main 320 314 _________PP___ -1 16.0199 85.8224 TC 45 15.9248 85.9371 3 2 297
1905265N16087 1905 42 NI BB NOT_NAMED 1905-09-23 00:00:00 TS 16.0421 85.7693 main 314 283 _________OP___ -1 16.1000 85.7000 TC 45 15.9842 85.8387 3 4 310
1905265N16087 1905 42 NI BB NOT_NAMED 1905-09-23 03:00:00 TS 16.2100 85.5863 main 283 253 _________PO___ -1 16.3200 85.4726 TC 45 16.1000 85.7000 3 6 315
1905265N16087 1905 42 NI BB NOT_NAMED 1905-09-23 06:00:00 TS 16.4484 85.3387 main 247 208 _________OP___ -1 16.6000 85.2000 TC 45 16.2968 85.4773 3 7 315
1905265N16087 1905 42 NI BB NOT_NAMED 1905-09-23 09:00:00 TS 16.7027 85.0753 main 208 173 _________PP___ -1 16.8575 84.9350 TC 45 16.5478 85.2156 3 7 316
1905265N16087 1905 42 NI BB NOT_NAMED 1905-09-23 12:00:00 TS 16.9625 84.8230 main 163 133 _________OP___ -1 17.1000 84.7000 TC 45 16.8249 84.9460 3 7 319
1905265N16087 1905 42 NI BB NOT_NAMED 1905-09-23 15:00:00 TS 17.2000 84.6174 main 133 109 _________PO___ -1 17.2999 84.5349 TC 45 17.1000 84.7000 3 6 323
1905265N16087 1905 42 NI BB NOT_NAMED 1905-09-23 18:00:00 TS 17.4058 84.4684 main 109 79 _________OP___ -1 17.5000 84.4000 TC 45 17.3116 84.5369 3 5 327
1905265N16087 1905 42 NI BB NOT_NAMED 1905-09-23 21:00:00 TS 17.6235 84.3320 main 79 45 _________PP___ -1 17.7274 84.2649 TC 45 17.5196 84.3991 3 5 329
1905265N16087 1905 42 NI BB NOT_NAMED 1905-09-24 00:00:00 TS 17.8714 84.1809 main 45 15 _________OP___ -1 18.0000 84.1000 TC 45 17.7429 84.2618 3 6 329
1905265N16087 1905 42 NI BB NOT_NAMED 1905-09-24 03:00:00 TS 18.1675 83.9825 main 10 0 _________PO___ -1 18.3350 83.8650 TC 41 18.0000 84.1000 3 8 327
1905265N16087 1905 42 NI BB NOT_NAMED 1905-09-24 06:00:00 TS 18.5152 83.7375 main 0 0 _________OP___ -1 18.7000 83.6000 TC 37 18.3304 83.8751 3 9 326
1905265N16087 1905 42 NI BB NOT_NAMED 1905-09-24 09:00:00 TS 18.8788 83.4828 main 0 0 _________PP___ -1 19.0650 83.3425 TC 33 18.6926 83.6230 3 9 326
1905265N16087 1905 42 NI BB NOT_NAMED 1905-09-24 12:00:00 TS 19.2293 83.2297 main 0 0 _________OP___ -1 19.4000 83.1000 TC 30 19.0585 83.3594 3 8 325
1905265N16087 1905 42 NI BB NOT_NAMED 1905-09-24 15:00:00 TS 19.5325 82.9999 main 0 0 _________PO___ -1 19.6649 82.8998 TC 30 19.4000 83.1000 1 7 324
1905265N16087 1905 42 NI BB NOT_NAMED 1905-09-24 18:00:00 TS 19.8014 82.7959 main 0 0 _________OP___ -1 19.9000 82.7000 TC 30 19.7027 82.8918 1 7 324
1905265N16087 1905 42 NI BB NOT_NAMED 1905-09-24 21:00:00 TS 20.0734 82.5798 main 0 0 _________PP___ -1 20.1724 82.4725 TC 30 19.9744 82.6870 1 7 319
1905265N16087 1905 42 NI BB NOT_NAMED 1905-09-25 00:00:00 TS 20.3044 82.3319 main 0 0 _________OP___ -1 20.4000 82.2000 TC 30 20.2089 82.4638 1 6 307
1905265N16087 1905 42 NI BB NOT_NAMED 1905-09-25 03:00:00 TS 20.4612 82.0362 main 0 0 _________PO___ -1 20.5225 81.8723 TC 30 20.4000 82.2000 1 7 291
1905265N16087 1905 42 NI BB NOT_NAMED 1905-09-25 06:00:00 TS 20.5391 81.6853 main 0 0 _________OP___ -1 20.6000 81.5000 TC 30 20.4782 81.8706 1 7 280
1905265N16087 1905 42 NI BB NOT_NAMED 1905-09-25 09:00:00 TS 20.5863 81.3072 main 0 0 _________PP___ -1 20.6474 81.1145 TC 30 20.5251 81.5000 1 8 283
1905265N16087 1905 42 NI BB NOT_NAMED 1905-09-25 12:00:00 TS 20.7047 80.9023 main 0 0 _________OP___ -1 20.8000 80.7000 TC 30 20.6094 81.1046 1 9 297
1905265N16087 1905 42 NI BB NOT_NAMED 1905-09-25 15:00:00 TS 20.9913 80.4714 main 0 0 _________PO___ -1 21.1826 80.2427 TC 30 20.8000 80.7000 1 10 312
1905265N16087 1905 42 NI BB NOT_NAMED 1905-09-25 18:00:00 TS 21.3841 80.0847 main 0 0 _________OP___ -1 21.7000 79.8000 TC 30 21.1471 80.2982 1 11 321
1905265N16087 1905 42 NI BB NOT_NAMED 1905-09-25 21:00:00 TS 21.8743 79.7107 main 0 0 _________PP___ -1 22.2475 79.4277 TC 30 21.6256 79.8993 1 12 327
1905265N16087 1905 42 NI BB NOT_NAMED 1905-09-26 00:00:00 TS 22.3942 79.3670 main 0 0 _________OP___ -1 22.8000 79.1000 TC 30 22.1913 79.5005 1 11 329
1905265N16087 1905 42 NI BB NOT_NAMED 1905-09-26 03:00:00 NR 22.8000 79.1000 main 0 __________O___ -1 TC 22.8000 79.1000 1 10 329

IBTrACS Databaseについて

本データベースは、米国NOAAが公開する1842年以降の世界の熱帯低気圧のベストトラックデータアーカイブInternational Best Track Archive for Climate Stewardship (IBTrACS)を、ウェブで閲覧しやすい形式に変換したものです。

最終更新日:2021-10-08